Aliq, Pennsylvania
Current Conditions -  °F | °C
As of 12:12 PM on Thursday 27 Nov 2014 (Local Time) from KPIT Reporting Station
Light Snow Light Snow  
Wind Chill: 28°   Ceiling: 2200
Heat Index: 33°   Visibility: 0.75mi
Dew Point: 31°   Wind: 6mph
Humidity: 92%   Direction: 280°W
Pressure: 30.07"   Gusts: NA
Location:  40.5921°N, 80.3191°W
Report Text: KPIT 271712Z 28005KT 3/4SM R28R/4000VP6000FT -SN BR SCT009 BKN022 OVC036 01/M01 A3007 RMK AO2 P0000 T00061006
Loading
Personal Weather Stations






























Interactive Weather Map New forecast layout! Learn more

10-Day Weather Forecast

Advertisements
Track Severe Weather on mobile